createdAt,value
2023-05-22T00:01:17.676Z,6.37
2023-05-22T00:03:44.265Z,6.71
2023-05-22T00:06:10.831Z,6.79
2023-05-22T00:08:37.430Z,6.64
2023-05-22T00:11:04.030Z,6.61
2023-05-22T00:13:30.548Z,6.52
2023-05-22T00:15:57.070Z,6.53
2023-05-22T00:18:23.600Z,6.93
2023-05-22T00:20:50.168Z,6.30
2023-05-22T00:23:17.776Z,6.55
2023-05-22T00:25:44.318Z,6.52
2023-05-22T00:28:10.825Z,6.43
2023-05-22T00:30:37.399Z,6.33
2023-05-22T00:33:04.153Z,6.31
2023-05-22T00:35:30.751Z,6.36
2023-05-22T00:37:57.314Z,6.21
2023-05-22T00:40:23.791Z,6.49
2023-05-22T00:42:50.260Z,6.41
2023-05-22T00:45:16.725Z,6.39
2023-05-22T00:47:43.333Z,6.12
2023-05-22T00:50:09.827Z,6.24
2023-05-22T00:52:36.474Z,6.24
2023-05-22T00:55:02.991Z,6.24
2023-05-22T00:57:29.520Z,6.42
2023-05-22T00:59:56.053Z,5.92
2023-05-22T01:02:22.581Z,6.30
2023-05-22T01:04:49.119Z,6.08
2023-05-22T01:07:15.677Z,6.65
2023-05-22T01:09:42.277Z,5.88
2023-05-22T01:12:08.792Z,5.98
2023-05-22T01:14:35.425Z,5.92
2023-05-22T01:17:01.992Z,6.02
2023-05-22T01:19:28.601Z,6.18
2023-05-22T01:21:55.178Z,5.64
2023-05-22T01:24:21.861Z,5.83
2023-05-22T01:26:48.418Z,5.75
2023-05-22T01:29:15.139Z,6.01
2023-05-22T01:31:41.596Z,6.02
2023-05-22T01:34:08.153Z,5.90
2023-05-22T01:36:34.730Z,5.92
2023-05-22T01:39:01.306Z,5.91
2023-05-22T01:41:30.643Z,5.69
2023-05-22T01:43:57.156Z,5.61
2023-05-22T01:46:23.730Z,5.82
2023-05-22T01:48:50.339Z,5.57
2023-05-22T01:51:16.951Z,5.55
2023-05-22T01:53:43.457Z,5.54
2023-05-22T01:56:10.001Z,5.60
2023-05-22T01:58:36.549Z,5.46
2023-05-22T02:01:03.157Z,5.73
2023-05-22T02:03:29.866Z,5.59
2023-05-22T02:05:56.427Z,5.81
2023-05-22T02:08:23.032Z,5.40
2023-05-22T02:10:49.549Z,5.67
2023-05-22T02:13:16.032Z,5.45
2023-05-22T02:15:42.686Z,5.52
2023-05-22T02:18:09.381Z,5.69
2023-05-22T02:20:35.954Z,5.44
2023-05-22T02:23:02.487Z,5.36
2023-05-22T02:25:29.100Z,5.27
2023-05-22T02:27:55.588Z,5.24
2023-05-22T02:30:22.128Z,5.23
2023-05-22T02:32:48.657Z,5.29
2023-05-22T02:35:15.287Z,5.46
2023-05-22T02:37:41.892Z,5.03
2023-05-22T02:40:08.492Z,5.13
2023-05-22T02:42:35.027Z,5.32
2023-05-22T02:45:01.549Z,5.31
2023-05-22T02:47:28.100Z,5.18
2023-05-22T02:49:54.895Z,5.09
2023-05-22T02:52:21.466Z,5.04
2023-05-22T02:54:48.065Z,5.40
2023-05-22T02:57:14.610Z,5.29
2023-05-22T02:59:41.148Z,4.96
2023-05-22T03:02:07.938Z,4.80
2023-05-22T03:04:34.647Z,5.11
2023-05-22T03:07:01.189Z,5.01
2023-05-22T03:09:27.693Z,5.11
2023-05-22T03:11:54.249Z,4.93
2023-05-22T03:14:20.761Z,5.04
2023-05-22T03:16:47.487Z,5.02
2023-05-22T03:19:14.199Z,5.25
2023-05-22T03:21:40.776Z,5.09
2023-05-22T03:24:07.403Z,5.13
2023-05-22T03:26:33.962Z,4.89
2023-05-22T03:29:00.513Z,5.04
2023-05-22T03:31:27.076Z,4.94
2023-05-22T03:33:53.663Z,4.85
2023-05-22T03:36:20.276Z,4.74
2023-05-22T03:38:46.809Z,4.90
2023-05-22T03:41:13.366Z,4.75
2023-05-22T03:43:41.131Z,4.91
2023-05-22T03:46:09.259Z,4.88
2023-05-22T03:48:35.833Z,4.48
2023-05-22T03:51:02.425Z,4.56
2023-05-22T03:53:28.902Z,4.68
2023-05-22T03:55:55.463Z,4.79
2023-05-22T03:58:22.021Z,4.89
2023-05-22T04:00:48.592Z,4.67
2023-05-22T04:03:15.330Z,4.85
2023-05-22T04:05:42.074Z,4.75
2023-05-22T04:08:08.671Z,4.89
2023-05-22T04:10:35.283Z,4.74
2023-05-22T04:13:01.818Z,4.66
2023-05-22T04:15:28.307Z,5.05
2023-05-22T04:17:54.963Z,4.75
2023-05-22T04:20:21.634Z,4.63
2023-05-22T04:22:48.161Z,4.70
2023-05-22T04:25:14.736Z,4.72
2023-05-22T04:27:41.389Z,4.63
2023-05-22T04:30:07.861Z,4.69
2023-05-22T04:32:34.313Z,4.74
2023-05-22T04:35:00.971Z,4.61
2023-05-22T04:37:27.481Z,4.64
2023-05-22T04:39:56.755Z,4.47
2023-05-22T04:42:23.355Z,4.30
2023-05-22T04:44:49.900Z,4.59
2023-05-22T04:47:16.428Z,4.73
2023-05-22T04:49:42.955Z,4.47
2023-05-22T04:52:09.538Z,4.61
2023-05-22T04:54:36.134Z,4.99
2023-05-22T04:57:02.659Z,5.12
2023-05-22T04:59:29.129Z,4.93
2023-05-22T05:01:55.635Z,5.08
2023-05-22T05:04:22.241Z,4.88
2023-05-22T05:06:48.698Z,4.98
2023-05-22T05:09:15.329Z,5.07
2023-05-22T05:11:41.888Z,5.16
2023-05-22T05:14:08.370Z,5.09
2023-05-22T05:16:34.917Z,5.37
2023-05-22T05:19:01.548Z,5.38
2023-05-22T05:21:28.278Z,5.16
2023-05-22T05:23:54.866Z,5.18
2023-05-22T05:26:21.422Z,5.34
2023-05-22T05:28:47.939Z,5.31
2023-05-22T05:31:14.483Z,5.32
2023-05-22T05:33:41.176Z,5.25
2023-05-22T05:36:07.924Z,5.20
2023-05-22T05:38:34.514Z,5.25
2023-05-22T05:41:01.075Z,4.67
2023-05-22T05:43:27.705Z,5.23
2023-05-22T05:45:54.340Z,4.91
2023-05-22T05:48:20.919Z,5.55
2023-05-22T05:50:47.448Z,5.52
2023-05-22T05:53:13.962Z,5.49
2023-05-22T05:55:40.487Z,5.54
2023-05-22T05:58:07.067Z,5.34
2023-05-22T06:00:33.681Z,5.75
2023-05-22T06:03:00.298Z,5.66
2023-05-22T06:05:27.067Z,5.49
2023-05-22T06:07:53.720Z,5.24
2023-05-22T06:10:20.232Z,5.57
2023-05-22T06:12:46.754Z,5.61
2023-05-22T06:15:13.309Z,5.51
2023-05-22T06:17:39.964Z,5.65
2023-05-22T06:20:06.661Z,5.74
2023-05-22T06:22:33.208Z,5.54
2023-05-22T06:24:59.791Z,5.50
2023-05-22T06:27:26.238Z,5.57
2023-05-22T06:29:52.767Z,5.65
2023-05-22T06:32:19.378Z,5.38
2023-05-22T06:34:45.847Z,5.62
2023-05-22T06:37:12.400Z,5.27
2023-05-22T06:39:38.879Z,5.46
2023-05-22T06:42:05.432Z,5.56
2023-05-22T06:44:32.012Z,5.20
2023-05-22T06:46:58.686Z,5.39
2023-05-22T06:49:25.384Z,5.24
2023-05-22T06:51:51.953Z,5.43
2023-05-22T06:54:18.479Z,5.08
2023-05-22T06:56:45.049Z,5.41
2023-05-22T06:59:11.654Z,5.29
2023-05-22T07:01:38.233Z,5.03
2023-05-22T07:04:04.837Z,5.67
2023-05-22T07:06:31.350Z,6.07
2023-05-22T07:08:57.922Z,5.82
2023-05-22T07:11:24.425Z,5.80
2023-05-22T07:13:50.965Z,5.96
2023-05-22T07:16:17.522Z,5.80
2023-05-22T07:18:44.152Z,5.73
2023-05-22T07:21:10.696Z,5.91
2023-05-22T07:23:37.293Z,6.02
2023-05-22T07:26:03.886Z,6.15
2023-05-22T07:28:30.467Z,6.31
2023-05-22T07:30:57.028Z,6.22
2023-05-22T07:33:23.627Z,6.05
2023-05-22T07:35:50.134Z,6.05
2023-05-22T07:38:16.671Z,6.08
2023-05-22T07:40:43.205Z,5.86
2023-05-22T07:43:09.774Z,6.26
2023-05-22T07:45:36.309Z,6.14
2023-05-22T07:48:02.791Z,5.67
2023-05-22T07:50:29.397Z,6.17
2023-05-22T07:52:56.052Z,6.12
2023-05-22T07:55:22.654Z,6.07
2023-05-22T07:57:49.296Z,5.82
2023-05-22T08:00:15.917Z,6.07
2023-05-22T08:02:42.523Z,6.00
2023-05-22T08:05:09.360Z,6.46
2023-05-22T08:07:36.041Z,5.95
2023-05-22T08:10:02.595Z,6.14
2023-05-22T08:12:29.203Z,5.84
2023-05-22T08:14:55.753Z,6.00
2023-05-22T08:17:22.468Z,5.84
2023-05-22T08:19:49.209Z,5.96
2023-05-22T08:22:15.809Z,6.00
2023-05-22T08:24:42.344Z,5.79
2023-05-22T08:27:08.945Z,5.69
2023-05-22T08:29:35.612Z,5.88
2023-05-22T08:32:02.275Z,5.81
2023-05-22T08:34:28.922Z,5.91
2023-05-22T08:36:55.472Z,5.72
2023-05-22T08:39:22.013Z,5.60
2023-05-22T08:41:48.596Z,6.20
2023-05-22T08:44:15.175Z,5.98
2023-05-22T08:46:41.742Z,5.73
2023-05-22T08:49:08.443Z,5.77
2023-05-22T08:51:35.056Z,5.86
2023-05-22T08:54:01.582Z,5.85
2023-05-22T08:56:29.473Z,5.96
2023-05-22T08:58:56.297Z,5.80
2023-05-22T09:01:22.975Z,5.91
2023-05-22T09:03:49.505Z,6.16
2023-05-22T09:06:15.996Z,5.82
2023-05-22T09:08:42.534Z,5.84
2023-05-22T09:11:09.036Z,5.91
2023-05-22T09:13:35.571Z,5.75
2023-05-22T09:16:02.134Z,5.84
2023-05-22T09:18:28.684Z,5.98
2023-05-22T09:20:55.189Z,6.10
2023-05-22T09:23:21.656Z,5.60
2023-05-22T09:25:48.125Z,5.69
2023-05-22T09:28:14.658Z,6.01
2023-05-22T09:30:41.330Z,5.99
2023-05-22T09:33:11.134Z,5.47
2023-05-22T09:35:37.646Z,5.68
2023-05-22T09:38:04.186Z,5.83
2023-05-22T09:40:30.678Z,6.14
2023-05-22T09:42:57.208Z,5.95
2023-05-22T09:45:23.707Z,5.74
2023-05-22T09:47:50.291Z,5.75
2023-05-22T09:50:16.799Z,5.43
2023-05-22T09:52:43.291Z,5.66
2023-05-22T09:55:09.771Z,5.94
2023-05-22T09:57:36.307Z,6.01
2023-05-22T10:00:02.840Z,6.03
2023-05-22T10:02:29.513Z,5.99
2023-05-22T10:04:56.189Z,6.02
2023-05-22T10:07:22.761Z,5.83
2023-05-22T10:09:49.311Z,5.94
2023-05-22T10:12:15.976Z,5.79
2023-05-22T10:14:42.570Z,5.70
2023-05-22T10:17:11.512Z,5.96
2023-05-22T10:19:40.466Z,6.03
2023-05-22T10:22:08.338Z,5.99
2023-05-22T10:24:34.951Z,6.00
2023-05-22T10:27:01.734Z,5.91
2023-05-22T10:29:31.439Z,5.73
2023-05-22T10:31:57.967Z,6.06
2023-05-22T10:34:24.507Z,5.63
2023-05-22T10:36:51.088Z,5.80
2023-05-22T10:39:17.562Z,5.66
2023-05-22T10:41:44.122Z,5.72
2023-05-22T10:44:10.650Z,5.42
2023-05-22T10:46:37.291Z,5.87
2023-05-22T10:49:03.840Z,5.83
2023-05-22T10:51:30.654Z,5.37
2023-05-22T10:53:57.256Z,5.42
2023-05-22T10:56:25.442Z,5.85
2023-05-22T10:58:52.443Z,5.71
2023-05-22T11:01:19.015Z,6.12
2023-05-22T11:03:45.663Z,5.74
2023-05-22T11:06:12.319Z,5.79
2023-05-22T11:08:38.919Z,5.74
2023-05-22T11:11:05.447Z,5.73
2023-05-22T11:13:32.022Z,5.86
2023-05-22T11:15:58.634Z,5.81
2023-05-22T11:18:25.248Z,5.97
2023-05-22T11:20:51.792Z,5.68
2023-05-22T11:23:18.386Z,5.73
2023-05-22T11:25:44.967Z,6.07
2023-05-22T11:28:11.582Z,5.90
2023-05-22T11:30:38.774Z,5.60
2023-05-22T11:33:05.520Z,5.40
2023-05-22T11:35:32.147Z,5.64
2023-05-22T11:37:58.800Z,5.78
2023-05-22T11:40:25.382Z,5.66
2023-05-22T11:42:51.902Z,5.68
2023-05-22T11:45:18.444Z,5.80
2023-05-22T11:47:45.075Z,5.79
2023-05-22T11:50:11.670Z,5.59
2023-05-22T11:52:38.281Z,5.50
2023-05-22T11:55:04.850Z,5.85
2023-05-22T11:57:31.392Z,6.55
2023-05-22T11:59:57.974Z,6.45
2023-05-22T12:02:24.601Z,6.40
2023-05-22T12:04:51.181Z,6.19
2023-05-22T12:07:17.801Z,6.23
2023-05-22T12:09:44.381Z,6.11
2023-05-22T12:12:10.956Z,6.17
2023-05-22T12:14:37.541Z,6.25
2023-05-22T12:17:04.135Z,6.09
2023-05-22T12:19:30.794Z,6.01
2023-05-22T12:21:57.495Z,6.32
2023-05-22T12:24:24.118Z,6.10
2023-05-22T12:26:50.635Z,6.39
2023-05-22T12:29:17.205Z,6.30
2023-05-22T12:31:43.737Z,6.30
2023-05-22T12:34:10.472Z,6.14
2023-05-22T12:36:37.040Z,6.25
2023-05-22T12:39:03.645Z,6.43
2023-05-22T12:41:30.221Z,6.07
2023-05-22T12:43:56.862Z,6.34
2023-05-22T12:46:23.485Z,6.03
2023-05-22T12:48:50.116Z,6.44
2023-05-22T12:51:18.653Z,6.18
2023-05-22T12:53:46.536Z,6.04
2023-05-22T12:56:13.124Z,5.95
2023-05-22T12:58:39.726Z,6.21
2023-05-22T13:01:06.383Z,6.26
2023-05-22T13:03:32.963Z,6.38
2023-05-22T13:05:59.541Z,6.15
2023-05-22T13:08:26.078Z,6.31
2023-05-22T13:10:52.542Z,7.22
2023-05-22T13:13:19.133Z,8.89
2023-05-22T13:15:45.805Z,8.07
2023-05-22T13:18:12.425Z,7.60
2023-05-22T13:20:39.082Z,7.38
2023-05-22T13:23:05.642Z,7.53
2023-05-22T13:25:32.204Z,7.39
2023-05-22T13:27:58.771Z,7.15
2023-05-22T13:30:25.414Z,6.86
2023-05-22T13:32:51.980Z,6.69
2023-05-22T13:35:18.567Z,7.03
2023-05-22T13:37:45.240Z,7.62
2023-05-22T13:40:11.840Z,7.72
2023-05-22T13:42:38.514Z,7.83
2023-05-22T13:45:05.077Z,7.76
2023-05-22T13:47:31.721Z,7.87
2023-05-22T13:49:58.436Z,7.30
2023-05-22T13:52:25.030Z,7.83
2023-05-22T13:54:51.655Z,7.22
2023-05-22T13:57:18.171Z,7.09
2023-05-22T13:59:44.764Z,6.99
2023-05-22T14:02:11.384Z,7.27
2023-05-22T14:04:38.043Z,7.35
2023-05-22T14:07:04.592Z,7.49
2023-05-22T14:09:31.108Z,7.12
2023-05-22T14:11:57.663Z,11.60
2023-05-22T14:14:24.695Z,9.63
2023-05-22T14:16:51.449Z,9.91
2023-05-22T14:19:18.141Z,9.54
2023-05-22T14:21:44.682Z,9.67
2023-05-22T14:24:11.230Z,9.28
2023-05-22T14:26:37.855Z,9.31
2023-05-22T14:29:04.592Z,9.11
2023-05-22T14:31:31.305Z,8.89
2023-05-22T14:33:57.885Z,8.68
2023-05-22T14:36:24.434Z,9.09
2023-05-22T14:38:51.033Z,8.74
2023-05-22T14:41:17.627Z,8.89
2023-05-22T14:43:44.189Z,8.62
2023-05-22T14:46:10.867Z,8.60
2023-05-22T14:48:37.461Z,8.36
2023-05-22T14:51:04.097Z,8.08
2023-05-22T14:53:30.733Z,8.26
2023-05-22T14:55:57.338Z,8.11
2023-05-22T14:58:23.937Z,8.32
2023-05-22T15:00:50.527Z,12.27
2023-05-22T15:03:17.195Z,13.68
2023-05-22T15:05:43.752Z,13.80
2023-05-22T15:08:10.362Z,13.44
2023-05-22T15:10:36.861Z,12.87
2023-05-22T15:13:03.401Z,13.34
2023-05-22T15:15:29.930Z,12.25
2023-05-22T15:17:56.534Z,11.78
2023-05-22T15:20:23.052Z,12.22
2023-05-22T15:22:49.541Z,12.49
2023-05-22T15:25:16.167Z,12.19
2023-05-22T15:27:42.773Z,11.46
2023-05-22T15:30:09.384Z,11.42
2023-05-22T15:32:35.922Z,11.13
2023-05-22T15:35:02.496Z,11.49
2023-05-22T15:37:30.278Z,14.28
2023-05-22T15:39:58.672Z,14.24
2023-05-22T15:42:25.301Z,13.56
2023-05-22T15:44:51.880Z,13.70
2023-05-22T15:47:18.553Z,13.72
2023-05-22T15:49:45.117Z,12.89
2023-05-22T15:52:11.722Z,12.50
2023-05-22T15:54:38.223Z,12.69
2023-05-22T15:57:05.972Z,12.03
2023-05-22T15:59:34.614Z,12.01
2023-05-22T16:02:01.075Z,11.93
2023-05-22T16:04:27.631Z,11.38
2023-05-22T16:06:54.260Z,11.05
2023-05-22T16:09:20.824Z,11.34
2023-05-22T16:11:47.337Z,10.59
2023-05-22T16:14:13.989Z,10.76
2023-05-22T16:16:40.600Z,10.37
2023-05-22T16:19:07.301Z,10.33
2023-05-22T16:21:33.850Z,9.03
2023-05-22T16:24:00.461Z,8.46
2023-05-22T16:26:27.047Z,9.01
2023-05-22T16:28:53.565Z,8.89
2023-05-22T16:31:20.168Z,8.76
2023-05-22T16:33:46.791Z,9.91
2023-05-22T16:36:13.413Z,9.89
2023-05-22T16:38:40.032Z,9.51
2023-05-22T16:41:06.611Z,9.69
2023-05-22T16:43:33.150Z,9.63
2023-05-22T16:45:59.718Z,9.70
2023-05-22T16:48:29.096Z,9.53
2023-05-22T16:50:55.712Z,9.15
2023-05-22T16:53:22.326Z,8.98
2023-05-22T16:55:48.964Z,9.07
2023-05-22T16:58:15.565Z,8.99
2023-05-22T17:00:42.393Z,8.49
2023-05-22T17:03:09.803Z,8.45
2023-05-22T17:05:36.821Z,8.59
2023-05-22T17:08:03.417Z,8.07
2023-05-22T17:10:30.063Z,7.58
2023-05-22T17:12:56.703Z,7.41
2023-05-22T17:15:23.244Z,7.31
2023-05-22T17:17:49.933Z,7.51
2023-05-22T17:20:16.498Z,6.97
2023-05-22T17:22:43.083Z,7.51
2023-05-22T17:25:09.544Z,7.47
2023-05-22T17:27:36.998Z,7.42
2023-05-22T17:30:03.619Z,6.90
2023-05-22T17:32:30.260Z,7.11
2023-05-22T17:34:56.855Z,6.96
2023-05-22T17:37:23.328Z,6.91
2023-05-22T17:39:49.868Z,6.75
2023-05-22T17:42:16.361Z,6.68
2023-05-22T17:44:42.876Z,6.58
2023-05-22T17:47:09.423Z,6.70
2023-05-22T17:49:35.901Z,6.52
2023-05-22T17:52:02.372Z,6.78
2023-05-22T17:54:28.883Z,6.79
2023-05-22T17:56:55.369Z,6.92
2023-05-22T17:59:21.932Z,6.66
2023-05-22T18:01:48.514Z,7.06
2023-05-22T18:04:15.038Z,7.05
2023-05-22T18:06:41.556Z,7.37
2023-05-22T18:09:08.142Z,7.11
2023-05-22T18:11:34.621Z,7.10
2023-05-22T18:14:01.162Z,6.84
2023-05-22T18:16:27.758Z,7.39
2023-05-22T18:18:54.560Z,6.88
2023-05-22T18:21:21.170Z,7.77
2023-05-22T18:23:47.666Z,8.26
2023-05-22T18:26:14.159Z,10.41
2023-05-22T18:28:40.638Z,11.37
2023-05-22T18:31:07.168Z,11.33
2023-05-22T18:33:33.715Z,11.14
2023-05-22T18:36:00.207Z,10.68
2023-05-22T18:38:26.817Z,10.73
2023-05-22T18:40:53.336Z,10.37
2023-05-22T18:43:19.921Z,10.47
2023-05-22T18:45:46.466Z,10.51
2023-05-22T18:48:13.101Z,10.79
2023-05-22T18:50:39.978Z,10.43
2023-05-22T18:53:06.587Z,10.60
2023-05-22T18:55:33.128Z,10.58
2023-05-22T18:57:59.720Z,10.64
2023-05-22T19:00:26.362Z,10.59
2023-05-22T19:02:52.933Z,10.52
2023-05-22T19:05:19.457Z,9.79
2023-05-22T19:07:45.951Z,9.82
2023-05-22T19:10:12.529Z,9.88
2023-05-22T19:12:39.108Z,10.21
2023-05-22T19:15:05.622Z,9.83
2023-05-22T19:17:32.180Z,10.05
2023-05-22T19:19:58.768Z,9.56
2023-05-22T19:22:25.292Z,9.79
2023-05-22T19:24:51.885Z,10.17
2023-05-22T19:27:18.460Z,9.93
2023-05-22T19:29:45.057Z,9.78
2023-05-22T19:32:11.608Z,10.02
2023-05-22T19:34:38.165Z,9.81
2023-05-22T19:37:04.861Z,9.30
2023-05-22T19:39:31.698Z,9.79
2023-05-22T19:41:58.322Z,9.53
2023-05-22T19:44:24.955Z,9.36
2023-05-22T19:46:51.706Z,9.33
2023-05-22T19:49:18.282Z,9.33
2023-05-22T19:51:44.904Z,9.04
2023-05-22T19:54:11.525Z,9.44
2023-05-22T19:56:38.027Z,9.22
2023-05-22T19:59:04.641Z,10.32
2023-05-22T20:01:31.207Z,10.00
2023-05-22T20:03:57.897Z,10.38
2023-05-22T20:06:24.471Z,10.79
2023-05-22T20:08:51.106Z,10.96
2023-05-22T20:11:17.702Z,10.48
2023-05-22T20:13:44.291Z,10.59
2023-05-22T20:16:10.913Z,10.63
2023-05-22T20:18:37.464Z,10.21
2023-05-22T20:21:05.745Z,10.53
2023-05-22T20:23:32.218Z,9.88
2023-05-22T20:25:58.728Z,9.75
2023-05-22T20:28:25.160Z,9.74
2023-05-22T20:30:51.693Z,9.66
2023-05-22T20:33:18.295Z,9.58
2023-05-22T20:35:44.947Z,9.28
2023-05-22T20:38:11.633Z,9.73
2023-05-22T20:40:38.148Z,9.65
2023-05-22T20:43:04.703Z,9.84
2023-05-22T20:45:31.259Z,10.31
2023-05-22T20:47:57.927Z,9.95
2023-05-22T20:50:24.556Z,9.83
2023-05-22T20:52:51.085Z,10.12
2023-05-22T20:55:17.700Z,10.09
2023-05-22T20:57:44.246Z,9.88
2023-05-22T21:00:10.797Z,9.71
2023-05-22T21:02:37.393Z,9.74
2023-05-22T21:05:04.064Z,9.56
2023-05-22T21:07:30.568Z,9.59
2023-05-22T21:09:57.211Z,9.43
2023-05-22T21:12:23.767Z,9.75
2023-05-22T21:14:50.509Z,9.09
2023-05-22T21:17:17.102Z,9.12
2023-05-22T21:19:43.760Z,9.16
2023-05-22T21:22:10.313Z,9.50
2023-05-22T21:24:36.871Z,9.39
2023-05-22T21:27:03.406Z,9.11
2023-05-22T21:29:29.942Z,9.02
2023-05-22T21:31:56.568Z,9.22
2023-05-22T21:34:23.188Z,9.01
2023-05-22T21:36:49.756Z,9.03
2023-05-22T21:39:16.261Z,9.19
2023-05-22T21:41:42.851Z,9.30
2023-05-22T21:44:09.518Z,9.35
2023-05-22T21:46:36.110Z,8.73
2023-05-22T21:49:02.704Z,8.54
2023-05-22T21:51:29.369Z,9.00
2023-05-22T21:53:55.846Z,8.63
2023-05-22T21:56:22.432Z,8.98
2023-05-22T21:58:48.965Z,8.87
2023-05-22T22:01:15.518Z,8.93
2023-05-22T22:03:42.234Z,8.66
2023-05-22T22:06:08.859Z,8.87
2023-05-22T22:08:35.557Z,8.88
2023-05-22T22:11:02.157Z,8.68
2023-05-22T22:13:28.676Z,8.85
2023-05-22T22:15:55.225Z,8.48
2023-05-22T22:18:21.759Z,8.64
2023-05-22T22:20:48.470Z,8.33
2023-05-22T22:23:15.207Z,8.21
2023-05-22T22:25:41.758Z,8.27
2023-05-22T22:28:08.218Z,8.46
2023-05-22T22:30:34.761Z,8.48
2023-05-22T22:33:01.448Z,8.20
2023-05-22T22:35:28.128Z,8.24
2023-05-22T22:37:54.724Z,8.66
2023-05-22T22:40:21.244Z,8.53
2023-05-22T22:42:47.784Z,8.33
2023-05-22T22:45:14.284Z,8.00
2023-05-22T22:47:40.847Z,8.50
2023-05-22T22:50:07.506Z,8.08
2023-05-22T22:52:34.126Z,8.22
2023-05-22T22:55:01.780Z,8.34
2023-05-22T22:57:28.470Z,8.07
2023-05-22T22:59:55.007Z,7.93
2023-05-22T23:02:21.640Z,8.03
2023-05-22T23:04:48.399Z,8.42
2023-05-22T23:07:14.995Z,8.17
2023-05-22T23:09:41.475Z,8.12
2023-05-22T23:12:07.980Z,8.29
2023-05-22T23:14:34.496Z,8.14
2023-05-22T23:17:01.064Z,8.10
2023-05-22T23:19:27.703Z,8.01
2023-05-22T23:21:54.297Z,7.94
2023-05-22T23:24:20.872Z,7.62
2023-05-22T23:26:50.214Z,8.01
2023-05-22T23:29:16.832Z,8.42
2023-05-22T23:31:43.518Z,8.01
2023-05-22T23:34:10.164Z,7.95
2023-05-22T23:36:36.696Z,7.87
2023-05-22T23:39:03.266Z,7.65
2023-05-22T23:41:29.867Z,7.83
2023-05-22T23:43:56.465Z,7.90
2023-05-22T23:46:23.049Z,7.75
2023-05-22T23:48:49.593Z,7.42
2023-05-22T23:51:16.110Z,8.07
2023-05-22T23:53:42.679Z,7.94
2023-05-22T23:56:09.211Z,8.20
2023-05-22T23:58:35.794Z,7.95
